Etusivu
METAR-TAF:

METAR-TAF

Lentoasemat :

Comanche County-City Airport

Comanche, Texas, Yhdysvallat

Leveyspiiri: 31-55N, Pituuspiiri: 098-36-01W, korkeus merenpinnasta: 423 m

Tämänhetkinen sää

Tämä raportti tehtiin 26 minuuttia sitten, kello 00.35 UTC
Tuuli 15 kn pohjoisesta puuskistuen 20 kn:hen
Lämpötila 7°C
Kosteus 100%
Ilmanpaine 1019 hPa
Näkyvyys: 6.4 km
Pilvistä 300 ft:n korkeudessa
utua

METAR: KMKN 080035Z AUTO 36015G20KT 4SM BR OVC003 07/07 A3008 RMK AO2 LTG DSNT E T00710071

Aika: 19:01 (01:01 UTC)


TAF: puuttuu

Säähavainnot ja -ennusteet yli 4000 lentoasemalta (METAR- ja TAF-raportit).

Käytössä olevat sääasemat on merkitty karttaan keltaisilla ja punaisilla pisteillä.

Aseta hiiri pisteen päälle nähdäksesi sääaseman nimen.

Klikkaa sitten nähdäksesi säähavainnot ja -ennusteet.

Kartan vaihtaminen: klikkaa mustalla rastilla varustettuja vihreitä pisteitä, niin voit zoomata sisään; viivalla varustettua vihreää pistettä, niin voit zoomata ulos tai vihreitä nuolia, niin pääset viereisille kartoille.


METAR-TAF: